createdAt,value
2017-07-04T03:00:17.048Z,3.90
2017-07-04T03:02:44.400Z,4.10
2017-07-04T03:05:11.724Z,4.47
2017-07-04T03:07:39.075Z,4.30
2017-07-04T03:10:06.412Z,4.47
2017-07-04T03:12:33.776Z,4.30
2017-07-04T03:15:01.269Z,4.20
2017-07-04T03:17:28.613Z,3.60
2017-07-04T03:19:55.940Z,3.83
2017-07-04T03:22:23.284Z,4.10
2017-07-04T03:24:50.609Z,3.50
2017-07-04T03:27:17.964Z,4.00
2017-07-04T03:29:45.373Z,4.17
2017-07-04T03:32:12.704Z,4.13
2017-07-04T03:34:40.070Z,4.50
2017-07-04T03:37:07.387Z,4.13
2017-07-04T03:42:20.720Z,4.10
2017-07-04T03:44:48.073Z,4.00
2017-07-04T03:47:15.544Z,4.23
2017-07-04T03:49:42.887Z,4.30
2017-07-04T03:52:10.209Z,3.83
2017-07-04T03:54:37.595Z,4.57
2017-07-04T03:57:04.916Z,3.93
2017-07-04T03:59:32.274Z,5.70
2017-07-04T04:01:59.593Z,4.10
2017-07-04T04:04:26.909Z,4.17
2017-07-04T04:06:57.412Z,4.50
2017-07-04T04:09:24.745Z,4.60
2017-07-04T04:11:52.096Z,4.30
2017-07-04T04:14:19.425Z,4.87
2017-07-04T04:16:46.766Z,4.30
2017-07-04T04:19:14.088Z,4.90
2017-07-04T04:21:41.433Z,3.90
2017-07-04T04:24:08.764Z,4.33
2017-07-04T04:26:36.112Z,4.43
2017-07-04T04:29:03.431Z,4.83
2017-07-04T04:31:30.786Z,4.60
2017-07-04T04:33:58.127Z,5.00
2017-07-04T04:36:25.452Z,4.97
2017-07-04T04:38:52.788Z,4.40
2017-07-04T04:41:20.103Z,4.40
2017-07-04T04:43:47.455Z,5.03
2017-07-04T04:46:14.771Z,4.13
2017-07-04T04:48:42.146Z,4.83
2017-07-04T04:51:09.487Z,3.90
2017-07-04T04:53:36.845Z,5.00
2017-07-04T04:56:04.171Z,4.60
2017-07-04T04:58:31.517Z,4.43
2017-07-04T05:03:51.768Z,4.37
2017-07-04T05:09:11.883Z,5.50
2017-07-04T05:11:39.209Z,4.30
2017-07-04T05:14:06.524Z,4.97
2017-07-04T05:16:33.868Z,4.47
2017-07-04T05:19:01.191Z,5.47
2017-07-04T05:21:28.550Z,5.00
2017-07-04T05:23:55.868Z,5.20
2017-07-04T05:26:23.202Z,5.07
2017-07-04T05:28:50.522Z,5.17
2017-07-04T05:31:17.872Z,5.10
2017-07-04T05:33:45.201Z,5.30
2017-07-04T05:36:12.557Z,5.40
2017-07-04T05:38:39.871Z,5.10
2017-07-04T05:41:07.182Z,4.90
2017-07-04T05:43:34.514Z,5.03
2017-07-04T05:46:01.900Z,5.17
2017-07-04T05:48:29.246Z,5.00
2017-07-04T05:50:56.565Z,4.77
2017-07-04T05:53:23.929Z,5.80
2017-07-04T05:55:51.252Z,5.23
2017-07-04T06:01:11.807Z,4.40
2017-07-04T06:03:39.152Z,3.90
2017-07-04T06:06:06.485Z,4.10
2017-07-04T06:08:33.822Z,3.53
2017-07-04T06:11:01.267Z,3.63
2017-07-04T06:13:28.760Z,3.03
2017-07-04T06:15:56.179Z,3.17
2017-07-04T06:18:23.513Z,3.60
2017-07-04T06:20:51.112Z,3.30
2017-07-04T06:23:18.432Z,3.40
2017-07-04T06:25:46.062Z,3.50
2017-07-04T06:28:13.482Z,2.70
2017-07-04T06:30:41.075Z,3.23
2017-07-04T06:33:08.404Z,3.03
2017-07-04T06:35:36.076Z,3.37
2017-07-04T06:38:03.401Z,2.70
2017-07-04T06:40:30.739Z,2.60
2017-07-04T06:42:58.062Z,3.00
2017-07-04T06:45:25.408Z,2.50
2017-07-04T06:47:52.737Z,2.77
2017-07-04T06:50:20.085Z,3.33
2017-07-04T06:52:47.475Z,3.17
2017-07-04T06:55:14.937Z,2.97
2017-07-04T06:57:42.274Z,3.30
2017-07-04T07:00:18.277Z,3.13
2017-07-04T07:02:45.602Z,2.57
2017-07-04T07:05:12.927Z,2.70
2017-07-04T07:07:40.269Z,4.07
2017-07-04T07:10:07.588Z,2.50
2017-07-04T07:12:34.930Z,3.23
2017-07-04T07:15:02.256Z,2.87
2017-07-04T07:17:29.597Z,3.00
2017-07-04T07:19:56.920Z,3.30
2017-07-04T07:22:24.259Z,3.40
2017-07-04T07:24:51.589Z,3.20
2017-07-04T07:27:18.928Z,2.60
2017-07-04T07:29:46.244Z,3.57
2017-07-04T07:32:13.595Z,3.23
2017-07-04T07:34:40.920Z,2.90
2017-07-04T07:37:08.257Z,3.67
2017-07-04T07:39:35.595Z,3.60
2017-07-04T07:42:02.927Z,3.73
2017-07-04T07:44:30.277Z,4.00
2017-07-04T07:46:57.593Z,3.90
2017-07-04T07:49:24.935Z,4.70
2017-07-04T07:51:52.260Z,4.33
2017-07-04T07:54:19.692Z,4.53
2017-07-04T07:56:47.015Z,6.63
2017-07-04T07:59:14.369Z,6.20
2017-07-04T08:01:41.696Z,4.53
2017-07-04T08:04:09.101Z,4.60
2017-07-04T08:06:36.423Z,4.87
2017-07-04T08:09:03.748Z,5.00
2017-07-04T08:11:31.098Z,5.80
2017-07-04T08:13:58.431Z,6.20
2017-07-04T08:16:25.776Z,4.67
2017-07-04T08:18:53.105Z,6.23
2017-07-04T08:21:20.488Z,5.47
2017-07-04T08:23:47.848Z,5.73
2017-07-04T08:26:15.204Z,6.97
2017-07-04T08:28:42.555Z,5.90
2017-07-04T08:31:09.899Z,6.07
2017-07-04T08:33:37.231Z,6.83
2017-07-04T08:36:04.651Z,5.00
2017-07-04T08:38:31.979Z,6.60
2017-07-04T08:40:59.304Z,5.90
2017-07-04T08:43:26.656Z,6.00
2017-07-04T08:45:54.047Z,5.57
2017-07-04T08:48:21.389Z,6.20
2017-07-04T08:50:48.716Z,6.07
2017-07-04T08:53:16.065Z,5.33
2017-07-04T08:55:43.397Z,5.37
2017-07-04T08:58:10.741Z,4.97
2017-07-04T09:00:38.060Z,4.50
2017-07-04T09:03:05.398Z,5.37
2017-07-04T09:05:32.728Z,5.80
2017-07-04T09:08:00.090Z,5.10
2017-07-04T09:10:27.419Z,4.63
2017-07-04T09:12:54.755Z,5.30
2017-07-04T09:15:22.101Z,5.37
2017-07-04T09:17:49.460Z,4.20
2017-07-04T09:20:16.828Z,4.37
2017-07-04T09:22:44.179Z,3.83
2017-07-04T09:25:11.527Z,4.03
2017-07-04T09:27:38.881Z,3.20
2017-07-04T09:30:06.221Z,4.03
2017-07-04T09:32:33.548Z,3.93
2017-07-04T09:35:00.889Z,3.70
2017-07-04T09:40:21.172Z,4.00
2017-07-04T09:42:48.512Z,4.23
2017-07-04T09:45:15.869Z,3.80
2017-07-04T09:47:43.211Z,4.40
2017-07-04T09:50:10.571Z,4.67
2017-07-04T09:52:37.917Z,4.40
2017-07-04T09:55:05.291Z,4.27
2017-07-04T09:57:32.652Z,4.90
2017-07-04T10:00:00.004Z,4.27
2017-07-04T10:02:27.339Z,3.80
2017-07-04T10:04:54.715Z,4.40
2017-07-04T10:07:22.049Z,4.33
2017-07-04T10:09:49.376Z,4.30
2017-07-04T10:12:16.775Z,3.47
2017-07-04T10:14:44.106Z,3.50
2017-07-04T10:17:11.421Z,3.70
2017-07-04T10:19:38.763Z,3.90
2017-07-04T10:22:06.090Z,3.40
2017-07-04T10:24:33.435Z,3.37
2017-07-04T10:27:00.765Z,3.00
2017-07-04T10:29:28.108Z,3.77
2017-07-04T10:31:55.429Z,3.33
2017-07-04T10:34:22.775Z,3.57
2017-07-04T10:36:50.095Z,2.90
2017-07-04T10:39:17.445Z,2.20
2017-07-04T10:41:44.762Z,2.57
2017-07-04T10:44:12.082Z,2.07
2017-07-04T10:46:39.426Z,2.33
2017-07-04T10:49:06.759Z,2.90
2017-07-04T10:51:34.100Z,2.80
2017-07-04T10:54:01.421Z,3.17
2017-07-04T10:56:28.767Z,2.73
2017-07-04T10:58:56.124Z,2.63
2017-07-04T11:01:23.577Z,3.47
2017-07-04T11:03:50.896Z,2.80
2017-07-04T11:06:18.231Z,3.10
2017-07-04T11:08:45.558Z,3.07
2017-07-04T11:11:12.917Z,2.70
2017-07-04T11:13:40.239Z,3.67
2017-07-04T11:16:07.555Z,2.90
2017-07-04T11:18:34.899Z,3.23
2017-07-04T11:21:02.222Z,3.03
2017-07-04T11:23:29.576Z,3.07
2017-07-04T11:25:56.929Z,3.17
2017-07-04T11:28:24.289Z,3.43
2017-07-04T11:30:51.605Z,3.10
2017-07-04T11:33:18.999Z,3.90
2017-07-04T11:35:46.315Z,3.23
2017-07-04T11:38:13.654Z,3.00
2017-07-04T11:40:40.982Z,3.10
2017-07-04T11:43:08.329Z,3.60
2017-07-04T11:45:35.664Z,2.30
2017-07-04T11:48:02.983Z,3.23
2017-07-04T11:50:30.376Z,2.80
2017-07-04T11:52:57.697Z,3.73
2017-07-04T11:55:25.027Z,2.53
2017-07-04T12:00:45.603Z,3.03
2017-07-04T12:03:12.922Z,3.00
2017-07-04T12:05:40.263Z,2.33
2017-07-04T12:08:07.600Z,3.20
2017-07-04T12:10:34.949Z,2.90
2017-07-04T12:13:02.262Z,2.70
2017-07-04T12:15:29.603Z,2.23
2017-07-04T12:17:56.986Z,2.80
2017-07-04T12:20:24.332Z,2.53
2017-07-04T12:22:51.647Z,2.40
2017-07-04T12:25:19.004Z,2.00
2017-07-04T12:27:46.327Z,3.00
2017-07-04T12:30:13.664Z,2.30
2017-07-04T12:32:41.020Z,2.67
2017-07-04T12:35:08.342Z,2.63
2017-07-04T12:37:35.683Z,2.87
2017-07-04T12:40:03.003Z,2.60
2017-07-04T12:42:31.130Z,3.03
2017-07-04T12:44:58.463Z,3.07
2017-07-04T12:47:25.803Z,3.13
2017-07-04T12:49:53.123Z,2.80
2017-07-04T12:52:37.744Z,2.47
2017-07-04T12:55:05.063Z,2.30
2017-07-04T12:57:32.412Z,2.67
2017-07-04T12:59:59.729Z,3.30
2017-07-04T13:02:27.044Z,3.00
2017-07-04T13:04:54.383Z,2.90
2017-07-04T13:07:21.720Z,2.90
2017-07-04T13:09:49.068Z,2.43
2017-07-04T13:12:16.387Z,2.67
2017-07-04T13:14:43.732Z,2.30
2017-07-04T13:17:11.056Z,2.70
2017-07-04T13:19:38.394Z,2.70
2017-07-04T13:22:05.716Z,2.70
2017-07-04T13:24:33.068Z,2.90
2017-07-04T13:27:00.396Z,2.90
2017-07-04T13:29:27.740Z,2.73
2017-07-04T13:31:55.069Z,2.73
2017-07-04T13:34:22.418Z,2.67
2017-07-04T13:36:49.762Z,2.47
2017-07-04T13:39:17.090Z,3.10
2017-07-04T13:41:44.433Z,3.37
2017-07-04T13:44:14.981Z,3.00
2017-07-04T13:46:42.325Z,3.37
2017-07-04T13:49:09.639Z,3.10
2017-07-04T13:51:36.987Z,3.13
2017-07-04T13:54:04.304Z,2.87
2017-07-04T13:56:31.648Z,3.03
2017-07-04T13:58:58.966Z,3.33
2017-07-04T14:04:16.151Z,2.80
2017-07-04T14:06:43.588Z,2.53
2017-07-04T14:14:52.312Z,3.07
2017-07-04T14:17:19.684Z,2.85
2017-07-04T14:19:47.016Z,2.40
2017-07-04T14:22:14.360Z,2.83
2017-07-04T14:24:41.712Z,2.93
2017-07-04T14:27:09.078Z,3.30
2017-07-04T14:29:36.445Z,3.10
2017-07-04T14:32:03.783Z,3.03
2017-07-04T14:34:31.130Z,2.73
2017-07-04T14:36:58.490Z,3.37
2017-07-04T14:39:25.910Z,2.50
2017-07-04T14:41:53.256Z,3.10
2017-07-04T14:44:20.610Z,2.70
2017-07-04T14:46:47.933Z,2.47
2017-07-04T14:49:15.303Z,2.30
2017-07-04T14:51:42.646Z,2.80
2017-07-04T14:54:09.983Z,3.00
2017-07-04T14:56:37.348Z,3.03
2017-07-04T14:59:04.703Z,3.23
2017-07-04T15:01:32.069Z,3.73
2017-07-04T15:03:59.410Z,3.20
2017-07-04T15:06:26.780Z,4.40
2017-07-04T15:08:54.174Z,4.43
2017-07-04T15:11:21.580Z,3.47
2017-07-04T15:13:48.930Z,4.93
2017-07-04T15:16:16.309Z,4.00
2017-07-04T15:18:43.674Z,3.30
2017-07-04T15:21:11.059Z,4.13
2017-07-04T15:23:38.411Z,3.53
2017-07-04T15:26:05.754Z,2.80
2017-07-04T15:28:33.116Z,2.93
2017-07-04T15:31:00.450Z,2.97
2017-07-04T15:33:32.024Z,3.03
2017-07-04T15:35:59.378Z,3.27
2017-07-04T15:38:26.737Z,3.13
2017-07-04T15:40:54.072Z,2.53
2017-07-04T15:43:21.430Z,3.17
2017-07-04T15:45:48.810Z,2.93
2017-07-04T15:48:16.184Z,3.37
2017-07-04T15:50:44.413Z,2.60
2017-07-04T15:53:11.784Z,2.80
2017-07-04T15:55:39.106Z,2.47
2017-07-04T15:58:06.438Z,2.47
2017-07-04T16:00:33.797Z,2.60
2017-07-04T16:03:01.131Z,2.37
2017-07-04T16:05:28.482Z,2.70
2017-07-04T16:07:56.733Z,2.33
2017-07-04T16:10:24.110Z,2.53
2017-07-04T16:12:55.323Z,2.63
2017-07-04T16:15:22.677Z,2.83
2017-07-04T16:17:50.018Z,2.70
2017-07-04T16:20:17.390Z,3.30
2017-07-04T16:22:44.755Z,3.70
2017-07-04T16:25:12.121Z,2.90
2017-07-04T16:27:39.477Z,2.37
2017-07-04T16:30:06.818Z,2.90
2017-07-04T16:32:34.173Z,3.10
2017-07-04T16:35:01.500Z,2.80
2017-07-04T16:37:28.864Z,2.80
2017-07-04T16:39:56.222Z,2.80
2017-07-04T16:42:23.588Z,2.80
2017-07-04T16:44:50.921Z,2.90
2017-07-04T16:47:18.284Z,3.00
2017-07-04T16:49:45.637Z,2.40
2017-07-04T16:52:13.005Z,2.60
2017-07-04T16:54:40.343Z,2.63
2017-07-04T16:57:07.681Z,3.10
2017-07-04T16:59:35.046Z,2.43
2017-07-04T17:02:02.383Z,3.33
2017-07-04T17:04:29.787Z,3.27
2017-07-04T17:06:57.181Z,2.87
2017-07-04T17:09:24.534Z,2.70
2017-07-04T17:11:51.906Z,2.47
2017-07-04T17:14:19.260Z,3.10
2017-07-04T17:16:46.595Z,2.73
2017-07-04T17:19:13.984Z,2.60
2017-07-04T17:21:41.319Z,2.93
2017-07-04T17:24:08.721Z,2.60
2017-07-04T17:26:36.045Z,2.93
2017-07-04T17:29:03.375Z,3.37
2017-07-04T17:31:30.733Z,3.17
2017-07-04T17:33:58.085Z,2.90
2017-07-04T17:36:25.443Z,2.97
2017-07-04T17:38:52.778Z,2.43
2017-07-04T17:41:20.132Z,3.10
2017-07-04T17:43:47.460Z,2.90
2017-07-04T17:46:14.824Z,3.40
2017-07-04T17:48:42.168Z,3.10
2017-07-04T17:51:09.518Z,3.50
2017-07-04T17:53:36.867Z,3.07
2017-07-04T17:56:04.198Z,2.90
2017-07-04T17:58:31.551Z,3.00
2017-07-04T18:00:58.875Z,3.00
2017-07-04T18:03:29.655Z,3.63
2017-07-04T18:05:57.029Z,2.73
2017-07-04T18:08:24.392Z,3.03
2017-07-04T18:10:51.725Z,3.00
2017-07-04T18:13:19.097Z,3.47
2017-07-04T18:15:46.433Z,3.80
2017-07-04T18:18:13.834Z,2.90
2017-07-04T18:20:42.083Z,3.17
2017-07-04T18:23:09.439Z,3.47
2017-07-04T18:25:36.776Z,3.03
2017-07-04T18:28:04.113Z,2.87
2017-07-04T18:30:31.467Z,3.13
2017-07-04T18:32:58.803Z,3.30
2017-07-04T18:35:26.176Z,3.73
2017-07-04T18:40:40.278Z,3.87
2017-07-04T18:43:07.604Z,3.30
2017-07-04T18:45:34.963Z,3.20
2017-07-04T18:48:02.299Z,3.20
2017-07-04T18:50:29.665Z,3.23
2017-07-04T18:52:56.997Z,4.03
2017-07-04T18:55:24.340Z,4.00
2017-07-04T18:57:51.683Z,4.10
2017-07-04T19:00:19.021Z,4.00
2017-07-04T19:02:46.372Z,3.63
2017-07-04T19:05:13.701Z,4.80
2017-07-04T19:07:41.050Z,3.90
2017-07-04T19:10:08.396Z,4.50
2017-07-04T19:15:28.217Z,3.90
2017-07-04T19:17:55.566Z,3.37
2017-07-04T19:20:22.899Z,4.10
2017-07-04T19:22:56.092Z,4.37
2017-07-04T19:25:23.415Z,4.10
2017-07-04T19:27:50.779Z,4.97
2017-07-04T19:30:19.022Z,4.30
2017-07-04T19:32:46.366Z,4.60
2017-07-04T19:35:13.703Z,5.03
2017-07-04T19:37:41.034Z,5.17
2017-07-04T19:40:08.408Z,4.10
2017-07-04T19:42:35.739Z,4.30
2017-07-04T19:45:03.098Z,4.30
2017-07-04T19:47:30.424Z,5.30
2017-07-04T19:49:57.779Z,4.63
2017-07-04T19:52:25.178Z,5.10
2017-07-04T19:54:52.559Z,5.53
2017-07-04T19:57:19.940Z,5.80
2017-07-04T20:02:40.029Z,5.03
2017-07-04T20:05:07.391Z,5.10
2017-07-04T20:07:34.718Z,4.60
2017-07-04T20:10:02.065Z,5.07
2017-07-04T20:12:29.417Z,6.40
2017-07-04T20:14:56.789Z,6.27
2017-07-04T20:17:24.138Z,6.47
2017-07-04T20:19:51.468Z,8.80
2017-07-04T20:22:18.844Z,9.13
2017-07-04T20:24:46.176Z,7.43
2017-07-04T20:27:13.535Z,7.30
2017-07-04T20:29:40.865Z,9.50
2017-07-04T20:32:08.233Z,10.23
2017-07-04T20:34:35.581Z,9.20
2017-07-04T20:37:02.949Z,10.63
2017-07-04T20:39:30.292Z,7.10
2017-07-04T20:41:57.662Z,8.23
2017-07-04T20:44:24.995Z,7.87
2017-07-04T20:46:55.851Z,7.30
2017-07-04T20:49:23.182Z,6.73
2017-07-04T20:51:50.508Z,5.80
2017-07-04T20:54:17.860Z,6.40
2017-07-04T20:56:45.185Z,5.70
2017-07-04T20:59:12.539Z,5.53
2017-07-04T21:01:39.868Z,4.90
2017-07-04T21:04:07.222Z,6.07
2017-07-04T21:06:34.550Z,5.83
2017-07-04T21:09:01.893Z,5.80
2017-07-04T21:11:29.236Z,4.60
2017-07-04T21:13:56.593Z,6.00
2017-07-04T21:16:23.913Z,6.27
2017-07-04T21:18:51.274Z,5.27
2017-07-04T21:21:18.615Z,5.90
2017-07-04T21:23:45.952Z,5.87
2017-07-04T21:26:13.299Z,5.80
2017-07-04T21:28:40.625Z,6.37
2017-07-04T21:31:07.980Z,5.40
2017-07-04T21:33:35.307Z,6.00
2017-07-04T21:36:02.657Z,7.33
2017-07-04T21:38:29.997Z,7.13
2017-07-04T21:40:57.351Z,5.83
2017-07-04T21:43:24.680Z,5.90
2017-07-04T21:45:52.044Z,6.17
2017-07-04T21:48:19.381Z,6.53
2017-07-04T21:50:46.725Z,6.10
2017-07-04T21:53:14.079Z,7.00
2017-07-04T21:55:41.412Z,5.90
2017-07-04T21:58:08.768Z,6.60
2017-07-04T22:00:36.109Z,6.50
2017-07-04T22:03:03.480Z,5.57
2017-07-04T22:05:30.822Z,6.37
2017-07-04T22:07:58.178Z,5.80
2017-07-04T22:10:25.517Z,5.90
2017-07-04T22:12:52.865Z,6.23
2017-07-04T22:15:20.204Z,7.17
2017-07-04T22:17:47.533Z,6.30
2017-07-04T22:23:07.220Z,6.63
2017-07-04T22:25:34.572Z,6.27
2017-07-04T22:28:01.908Z,6.60
2017-07-04T22:30:29.273Z,7.43
2017-07-04T22:32:56.610Z,6.63
2017-07-04T22:35:23.961Z,6.40
2017-07-04T22:37:51.301Z,6.87
2017-07-04T22:40:18.664Z,5.83
2017-07-04T22:42:46.001Z,6.23
2017-07-04T22:45:13.359Z,6.33
2017-07-04T22:47:40.702Z,6.10
2017-07-04T22:50:08.981Z,6.57
2017-07-04T22:52:36.493Z,5.90
2017-07-04T22:55:03.833Z,7.27
2017-07-04T22:57:31.182Z,6.50
2017-07-04T22:59:58.517Z,7.83
2017-07-04T23:02:25.882Z,6.40
2017-07-04T23:04:53.226Z,6.40
2017-07-04T23:07:20.589Z,7.20
2017-07-04T23:09:47.917Z,7.10
2017-07-04T23:12:15.272Z,6.73
2017-07-04T23:14:42.665Z,5.77
2017-07-04T23:17:10.023Z,6.90
2017-07-04T23:19:37.346Z,6.40
2017-07-04T23:22:04.681Z,7.30
2017-07-04T23:24:32.050Z,6.80
2017-07-04T23:26:59.393Z,6.50
2017-07-04T23:29:26.756Z,6.23
2017-07-04T23:31:54.073Z,7.33
2017-07-04T23:34:21.436Z,7.40
2017-07-04T23:36:48.767Z,6.80
2017-07-04T23:39:16.114Z,7.60
2017-07-04T23:41:43.484Z,6.80
2017-07-04T23:44:10.857Z,7.33
2017-07-04T23:49:30.978Z,7.50
2017-07-04T23:51:58.317Z,7.03
2017-07-04T23:54:25.676Z,6.60
2017-07-04T23:56:59.662Z,7.00
2017-07-04T23:59:27.023Z,7.30
